createdAt,value
2018-01-08T13:18:21.056Z,26.63
2018-01-08T13:20:47.604Z,23.03
2018-01-08T13:23:14.019Z,21.57
2018-01-08T13:25:40.448Z,21.30
2018-01-08T13:28:07.063Z,23.00
2018-01-08T13:30:33.530Z,21.50
2018-01-08T13:33:01.562Z,23.00
2018-01-08T13:35:28.698Z,20.47
2018-01-08T13:37:55.864Z,21.87
2018-01-08T13:40:22.332Z,24.20
2018-01-08T13:42:48.842Z,26.37
2018-01-08T13:45:15.286Z,20.03
2018-01-08T13:47:41.756Z,21.17
2018-01-08T13:50:08.199Z,19.77
2018-01-08T13:52:34.627Z,20.20
2018-01-08T13:55:01.066Z,19.07
2018-01-08T13:57:27.517Z,43.50
2018-01-08T13:59:54.719Z,20.77
2018-01-08T14:02:21.245Z,29.73
2018-01-08T14:04:47.675Z,28.00
2018-01-08T14:07:14.120Z,19.90
2018-01-08T14:09:40.630Z,23.63
2018-01-08T14:12:07.817Z,21.50
2018-01-08T14:14:34.269Z,20.00
2018-01-08T14:17:00.675Z,24.63
2018-01-08T14:19:27.080Z,23.83
2018-01-08T14:21:53.503Z,22.83
2018-01-08T14:24:19.943Z,28.13
2018-01-08T14:26:46.351Z,23.97
2018-01-08T14:29:13.538Z,18.67
2018-01-08T14:31:39.949Z,24.50
2018-01-08T14:34:06.399Z,19.87
2018-01-08T14:36:32.783Z,23.57
2018-01-08T14:38:59.231Z,19.20
2018-01-08T14:41:25.645Z,19.70
2018-01-08T14:43:53.543Z,22.43
2018-01-08T14:46:20.709Z,18.90
2018-01-08T14:48:47.084Z,19.97
2018-01-08T14:51:15.045Z,23.03
2018-01-08T14:53:41.490Z,22.07
2018-01-08T14:56:07.875Z,25.73
2018-01-08T14:58:34.306Z,18.03
2018-01-08T15:01:00.762Z,24.90
2018-01-08T15:03:27.175Z,21.20
2018-01-08T15:05:53.555Z,24.40
2018-01-08T15:08:20.009Z,22.20
2018-01-08T15:10:47.201Z,22.87
2018-01-08T15:13:13.647Z,20.03
2018-01-08T15:15:40.093Z,22.17
2018-01-08T15:18:06.513Z,25.33
2018-01-08T15:20:33.009Z,24.93
2018-01-08T15:22:59.463Z,26.50
2018-01-08T15:25:25.895Z,23.67
2018-01-08T15:27:52.297Z,24.40
2018-01-08T15:30:19.428Z,25.70
2018-01-08T15:32:46.559Z,22.90
2018-01-08T15:35:12.951Z,27.20
2018-01-08T15:37:39.338Z,22.93
2018-01-08T15:40:05.740Z,24.43
2018-01-08T15:42:32.148Z,23.37
2018-01-08T15:44:58.565Z,21.20
2018-01-08T15:47:24.962Z,23.40
2018-01-08T15:49:51.347Z,26.53
2018-01-08T15:52:17.751Z,24.47
2018-01-08T15:54:44.891Z,23.90
2018-01-08T15:57:12.056Z,32.23
2018-01-08T15:59:39.196Z,24.33
2018-01-08T16:02:06.345Z,24.30
2018-01-08T16:04:33.461Z,22.80
2018-01-08T16:07:01.364Z,22.73
2018-01-08T16:09:27.773Z,22.60
2018-01-08T16:11:54.155Z,19.33
2018-01-08T16:14:20.551Z,24.17
2018-01-08T16:16:46.966Z,21.47
2018-01-08T16:19:13.368Z,23.97
2018-01-08T16:21:39.770Z,23.27
2018-01-08T16:24:06.166Z,24.43
2018-01-08T16:26:33.483Z,21.17
2018-01-08T16:28:59.886Z,26.63
2018-01-08T16:31:26.302Z,24.87
2018-01-08T16:33:53.446Z,26.73
2018-01-08T16:36:20.568Z,27.20
2018-01-08T16:38:46.978Z,24.17
2018-01-08T16:41:13.365Z,28.67
2018-01-08T16:43:40.506Z,30.80
2018-01-08T16:46:07.644Z,22.17
2018-01-08T16:48:34.806Z,22.87
2018-01-08T16:51:01.923Z,22.67
2018-01-08T16:53:29.061Z,23.10
2018-01-08T16:55:55.488Z,20.27
2018-01-08T16:58:21.900Z,21.50
2018-01-08T17:00:48.345Z,24.03
2018-01-08T17:03:14.808Z,21.23
2018-01-08T17:05:41.296Z,21.30
2018-01-08T17:08:07.816Z,20.63
2018-01-08T17:10:34.263Z,19.00
2018-01-08T17:13:00.733Z,20.03
2018-01-08T17:15:27.138Z,21.40
2018-01-08T17:17:53.581Z,20.07
2018-01-08T17:20:20.094Z,20.00
2018-01-08T17:22:46.540Z,22.37
2018-01-08T17:25:13.721Z,26.63
2018-01-08T17:27:40.119Z,19.43
2018-01-08T17:30:06.525Z,23.57
2018-01-08T17:32:33.681Z,21.47
2018-01-08T17:35:00.839Z,23.57
2018-01-08T17:37:27.973Z,24.37
2018-01-08T17:39:55.112Z,24.97
2018-01-08T17:42:22.279Z,24.37
2018-01-08T17:44:49.400Z,20.37
2018-01-08T17:47:15.838Z,22.43
2018-01-08T17:49:42.996Z,22.43
2018-01-08T17:52:10.144Z,24.10
2018-01-08T17:54:36.538Z,21.50
2018-01-08T17:57:02.955Z,22.23
2018-01-08T17:59:29.344Z,27.80
2018-01-08T18:01:57.364Z,26.37
2018-01-08T18:04:23.727Z,28.37
2018-01-08T18:06:50.131Z,23.77
2018-01-08T18:09:16.540Z,22.67
2018-01-08T18:11:43.011Z,27.00
2018-01-08T18:14:09.407Z,22.70
2018-01-08T18:16:35.839Z,24.60
2018-01-08T18:19:02.244Z,39.37
2018-01-08T18:21:29.420Z,33.70
2018-01-08T18:23:55.826Z,31.33
2018-01-08T18:26:22.281Z,27.77
2018-01-08T18:28:48.676Z,29.47
2018-01-08T18:31:15.116Z,34.53
2018-01-08T18:33:41.523Z,23.40
2018-01-08T18:36:07.916Z,28.83
2018-01-08T18:38:34.346Z,28.80
2018-01-08T18:41:01.496Z,30.00
2018-01-08T18:43:27.902Z,31.57
2018-01-08T18:45:55.058Z,28.50
2018-01-08T18:48:22.209Z,27.20
2018-01-08T18:50:49.395Z,25.60
2018-01-08T18:53:15.792Z,25.27
2018-01-08T18:55:42.929Z,25.07
2018-01-08T18:58:09.358Z,25.80
2018-01-08T19:00:35.850Z,24.77
2018-01-08T19:03:02.315Z,26.17
2018-01-08T19:05:29.508Z,24.10
2018-01-08T19:07:55.906Z,22.90
2018-01-08T19:10:22.299Z,25.93
2018-01-08T19:12:48.744Z,25.20
2018-01-08T19:15:15.191Z,21.63
2018-01-08T19:17:41.586Z,21.40
2018-01-08T19:20:08.014Z,23.97
2018-01-08T19:22:34.485Z,21.43
2018-01-08T19:25:00.903Z,24.10
2018-01-08T19:27:27.314Z,23.03
2018-01-08T19:29:53.709Z,24.53
2018-01-08T19:32:20.856Z,28.97
2018-01-08T19:34:48.010Z,25.40
2018-01-08T19:37:15.152Z,26.97
2018-01-08T19:39:41.547Z,24.33
2018-01-08T19:42:07.917Z,24.70
2018-01-08T19:44:34.320Z,24.97
2018-01-08T19:47:00.717Z,24.30
2018-01-08T19:49:27.095Z,23.90
2018-01-08T19:51:53.550Z,25.90
2018-01-08T19:54:19.947Z,21.83
2018-01-08T19:56:46.344Z,24.77
2018-01-08T19:59:13.568Z,26.00
2018-01-08T20:01:40.723Z,25.63
2018-01-08T20:04:07.852Z,26.30
2018-01-08T20:06:34.297Z,26.90
2018-01-08T20:09:01.476Z,30.73
2018-01-08T20:11:27.902Z,29.60
2018-01-08T20:13:55.031Z,29.80
2018-01-08T20:16:22.151Z,30.00
2018-01-08T20:18:48.576Z,29.10
2018-01-08T20:21:14.971Z,31.23
2018-01-08T20:23:41.437Z,31.83
2018-01-08T20:26:07.836Z,33.30
2018-01-08T20:28:34.236Z,30.50
2018-01-08T20:31:00.683Z,29.60
2018-01-08T20:33:27.853Z,29.20
2018-01-08T20:35:54.252Z,28.67
2018-01-08T20:38:20.654Z,32.20
2018-01-08T20:40:47.038Z,34.03
2018-01-08T20:43:14.205Z,57.33
2018-01-08T20:45:40.627Z,50.57
2018-01-08T20:48:07.022Z,31.67
2018-01-08T20:50:33.417Z,32.60
2018-01-08T20:52:59.789Z,37.80
2018-01-08T20:55:27.656Z,51.20
2018-01-08T20:57:54.057Z,30.40
2018-01-08T21:00:20.487Z,41.77
2018-01-08T21:02:46.888Z,36.37
2018-01-08T21:05:13.292Z,32.03
2018-01-08T21:07:40.432Z,32.57
2018-01-08T21:10:06.803Z,34.57
2018-01-08T21:12:33.228Z,32.33
2018-01-08T21:15:00.360Z,33.63
2018-01-08T21:17:27.499Z,34.70
2018-01-08T21:19:53.891Z,63.10
2018-01-08T21:22:20.325Z,74.73
2018-01-08T21:24:46.710Z,54.93
2018-01-08T21:27:13.875Z,33.47
2018-01-08T21:29:40.271Z,34.47
2018-01-08T21:32:06.690Z,37.70
2018-01-08T21:34:33.077Z,34.73
2018-01-08T21:36:59.483Z,37.10
2018-01-08T21:39:26.624Z,39.63
2018-01-08T21:41:52.996Z,35.80
2018-01-08T21:44:19.388Z,39.53
2018-01-08T21:46:45.771Z,40.10
2018-01-08T21:49:12.168Z,44.17
2018-01-08T21:51:39.302Z,57.00
2018-01-08T21:54:05.695Z,41.60
2018-01-08T21:56:32.079Z,45.80
2018-01-08T21:58:59.255Z,42.63
2018-01-08T22:01:25.658Z,45.10
2018-01-08T22:03:52.802Z,49.47
2018-01-08T22:06:19.981Z,54.73
2018-01-08T22:08:46.354Z,48.07
2018-01-08T22:11:12.742Z,45.37
2018-01-08T22:13:39.123Z,55.10
2018-01-08T22:16:05.505Z,51.90
2018-01-08T22:18:31.941Z,57.97
2018-01-08T22:20:58.443Z,49.73
2018-01-08T22:23:24.805Z,54.33
2018-01-08T22:25:51.186Z,56.17
2018-01-08T22:28:17.591Z,49.20
2018-01-08T22:30:43.987Z,55.00
2018-01-08T22:33:11.110Z,53.90
2018-01-08T22:35:38.995Z,55.40
2018-01-08T22:38:06.146Z,53.57
2018-01-08T22:40:32.531Z,55.63
2018-01-08T22:42:58.936Z,54.63
2018-01-08T22:45:25.327Z,57.03
2018-01-08T22:47:51.711Z,59.97
2018-01-08T22:50:18.109Z,60.73
2018-01-08T22:52:45.256Z,64.20
2018-01-08T22:55:12.391Z,52.17
2018-01-08T22:57:38.776Z,56.93
2018-01-08T23:00:05.183Z,62.77
2018-01-08T23:02:32.303Z,56.97
2018-01-08T23:04:58.713Z,61.00
2018-01-08T23:07:25.102Z,49.30
2018-01-08T23:09:51.495Z,50.57
2018-01-08T23:12:19.401Z,59.30
2018-01-08T23:14:46.531Z,56.47
2018-01-08T23:17:13.647Z,61.87
2018-01-08T23:19:40.035Z,53.93
2018-01-08T23:22:06.427Z,59.57
2018-01-08T23:24:34.318Z,65.10
2018-01-08T23:27:01.482Z,61.80
2018-01-08T23:29:27.932Z,58.33
2018-01-08T23:31:54.338Z,66.33
2018-01-08T23:34:20.750Z,62.87
2018-01-08T23:36:47.908Z,63.93
2018-01-08T23:39:15.062Z,72.10
2018-01-08T23:41:42.220Z,66.17
2018-01-08T23:44:08.604Z,63.80
2018-01-08T23:46:34.990Z,64.27
2018-01-08T23:49:02.106Z,54.70
2018-01-08T23:51:28.510Z,61.93
2018-01-08T23:53:54.908Z,66.50
2018-01-08T23:56:21.283Z,57.77
2018-01-08T23:58:47.722Z,64.13
